createdAt,value
2022-08-24T00:00:32.728Z,7.18
2022-08-24T00:04:46.873Z,7.68
2022-08-24T00:09:03.692Z,7.43
2022-08-24T00:13:19.185Z,7.60
2022-08-24T00:17:34.309Z,7.65
2022-08-24T00:21:48.438Z,7.38
2022-08-24T00:26:03.348Z,8.27
2022-08-24T00:30:20.835Z,8.35
2022-08-24T00:34:35.767Z,8.10
2022-08-24T00:38:50.594Z,8.40
2022-08-24T00:43:07.354Z,7.35
2022-08-24T00:47:25.410Z,7.30
2022-08-24T00:51:43.333Z,7.40
2022-08-24T00:56:00.640Z,7.10
2022-08-24T01:00:20.079Z,6.75
2022-08-24T01:04:41.111Z,6.75
2022-08-24T01:08:56.804Z,7.60
2022-08-24T01:13:13.644Z,7.07
2022-08-24T01:17:45.410Z,7.60
2022-08-24T01:22:12.248Z,7.40
2022-08-24T01:26:38.746Z,7.85
2022-08-24T01:30:53.084Z,9.10
2022-08-24T01:35:09.761Z,8.15
2022-08-24T01:39:32.973Z,7.30
2022-08-24T01:43:48.672Z,6.93
2022-08-24T01:48:03.190Z,7.07
2022-08-24T01:52:19.644Z,7.00
2022-08-24T01:56:34.754Z,8.65
2022-08-24T02:00:52.098Z,9.75
2022-08-24T02:05:06.876Z,9.53
2022-08-24T02:09:20.976Z,10.50
2022-08-24T02:13:35.649Z,10.80
2022-08-24T02:17:50.974Z,10.25
2022-08-24T02:22:06.195Z,9.20
2022-08-24T02:26:23.354Z,9.30
2022-08-24T02:30:42.729Z,8.18
2022-08-24T02:34:58.293Z,10.63
2022-08-24T02:39:12.740Z,9.15
2022-08-24T02:43:26.917Z,9.98
2022-08-24T02:47:42.317Z,9.40
2022-08-24T02:51:57.888Z,9.18
2022-08-24T02:56:12.248Z,9.00
2022-08-24T03:00:27.961Z,9.65
2022-08-24T03:04:43.441Z,8.40
2022-08-24T03:09:06.217Z,8.25
2022-08-24T03:13:20.366Z,8.02
2022-08-24T03:17:35.043Z,9.30
2022-08-24T03:21:49.120Z,8.73
2022-08-24T03:26:04.451Z,9.07
2022-08-24T03:30:18.701Z,10.20
2022-08-24T03:34:34.488Z,9.27
2022-08-24T03:38:48.418Z,10.07
2022-08-24T03:43:04.429Z,8.80
2022-08-24T03:47:18.919Z,9.17
2022-08-24T03:51:32.843Z,9.00
2022-08-24T03:55:46.702Z,9.05
2022-08-24T04:00:02.089Z,9.77
2022-08-24T04:04:17.199Z,8.60
2022-08-24T04:08:31.750Z,8.75
2022-08-24T04:12:46.404Z,8.90
2022-08-24T04:17:02.298Z,9.60
2022-08-24T04:21:26.564Z,9.48
2022-08-24T04:25:42.530Z,10.45
2022-08-24T04:29:56.416Z,10.20
2022-08-24T04:34:14.967Z,8.90
2022-08-24T04:38:30.027Z,9.02
2022-08-24T04:43:02.744Z,8.60
2022-08-24T04:47:18.829Z,8.35
2022-08-24T04:51:36.712Z,8.38
2022-08-24T04:55:52.382Z,7.67
2022-08-24T05:00:09.560Z,7.43
2022-08-24T05:04:24.391Z,8.60
2022-08-24T05:08:40.936Z,8.00
2022-08-24T05:12:54.977Z,7.13
2022-08-24T05:17:09.262Z,7.40
2022-08-24T05:21:26.039Z,7.15
2022-08-24T05:25:43.956Z,7.37
2022-08-24T05:29:58.440Z,7.38
2022-08-24T05:34:12.518Z,8.23
2022-08-24T05:38:26.420Z,7.57
2022-08-24T05:42:42.175Z,7.47
2022-08-24T05:46:58.204Z,7.38
2022-08-24T05:51:13.392Z,8.10
2022-08-24T05:55:40.935Z,8.73
2022-08-24T05:59:56.445Z,8.35
2022-08-24T06:04:10.233Z,8.13
2022-08-24T06:08:24.704Z,8.40
2022-08-24T06:12:41.630Z,7.75
2022-08-24T06:16:57.716Z,7.53
2022-08-24T06:21:13.995Z,7.53
2022-08-24T06:25:51.479Z,7.28
2022-08-24T06:30:09.672Z,7.55
2022-08-24T06:34:43.774Z,7.40
2022-08-24T06:38:57.738Z,8.07
2022-08-24T06:43:12.467Z,7.07
2022-08-24T06:47:33.969Z,7.05
2022-08-24T06:51:50.998Z,6.80
2022-08-24T06:56:06.444Z,6.97
2022-08-24T07:00:21.753Z,7.00
2022-08-24T07:04:37.245Z,7.40
2022-08-24T07:09:12.551Z,6.82
2022-08-24T07:13:26.565Z,6.90
2022-08-24T07:17:40.951Z,6.30
2022-08-24T07:21:57.953Z,6.30
2022-08-24T07:26:21.414Z,6.30
2022-08-24T07:30:36.694Z,6.55
2022-08-24T07:34:51.407Z,6.30
2022-08-24T07:39:08.023Z,5.45
2022-08-24T07:43:24.928Z,6.50
2022-08-24T07:47:43.252Z,5.90
2022-08-24T07:52:22.410Z,5.13
2022-08-24T07:56:36.768Z,4.78
2022-08-24T08:00:52.530Z,4.80
2022-08-24T08:05:08.522Z,5.13
2022-08-24T08:09:28.276Z,5.10
2022-08-24T08:18:02.808Z,4.30
2022-08-24T08:22:35.370Z,4.40
2022-08-24T08:27:18.298Z,4.28
2022-08-24T08:31:34.262Z,3.90
2022-08-24T08:35:52.367Z,4.18
2022-08-24T08:40:12.441Z,4.20
2022-08-24T08:44:41.125Z,4.25
2022-08-24T08:49:13.283Z,4.27
2022-08-24T08:53:56.784Z,4.68
2022-08-24T08:58:29.698Z,3.95
2022-08-24T09:03:21.750Z,4.10
2022-08-24T09:08:02.385Z,3.80
2022-08-24T09:12:32.454Z,3.50
2022-08-24T09:17:00.706Z,3.60
2022-08-24T09:21:40.532Z,3.30
2022-08-24T09:26:03.447Z,3.40
2022-08-24T09:30:24.782Z,2.80
2022-08-24T09:34:59.739Z,3.20
2022-08-24T09:39:35.892Z,2.90
2022-08-24T09:44:14.277Z,3.03
2022-08-24T09:49:20.174Z,3.17
2022-08-24T09:54:02.036Z,3.00
2022-08-24T09:58:25.349Z,2.83
2022-08-24T10:02:53.899Z,3.10
2022-08-24T10:07:25.147Z,3.13
2022-08-24T10:11:50.402Z,3.10
2022-08-24T10:16:20.180Z,3.55
2022-08-24T10:20:55.531Z,4.20
2022-08-24T10:25:27.803Z,4.88
2022-08-24T10:30:09.088Z,3.67
2022-08-24T10:34:38.702Z,3.73
2022-08-24T10:39:21.520Z,3.10
2022-08-24T10:44:08.742Z,3.10
2022-08-24T10:48:45.107Z,3.20
2022-08-24T10:53:27.410Z,3.20
2022-08-24T10:57:48.566Z,3.80
2022-08-24T11:02:12.544Z,2.85
2022-08-24T11:06:31.950Z,3.50
2022-08-24T11:10:45.770Z,3.20
2022-08-24T11:15:01.494Z,3.40
2022-08-24T11:19:30.199Z,3.20
2022-08-24T11:23:46.094Z,2.95
2022-08-24T11:28:06.620Z,3.00
2022-08-24T11:32:29.194Z,3.00
2022-08-24T11:36:44.047Z,3.58
2022-08-24T11:41:07.862Z,3.28
2022-08-24T11:45:29.878Z,3.55
2022-08-24T11:49:52.943Z,3.10
2022-08-24T11:54:14.760Z,3.53
2022-08-24T11:58:44.263Z,3.10
2022-08-24T12:03:04.383Z,3.67
2022-08-24T12:07:31.661Z,3.10
2022-08-24T12:11:53.022Z,3.42
2022-08-24T12:16:14.257Z,3.63
2022-08-24T12:20:35.693Z,3.78
2022-08-24T12:24:52.475Z,3.58
2022-08-24T12:29:11.172Z,3.70
2022-08-24T12:33:32.631Z,3.60
2022-08-24T12:37:57.432Z,3.95
2022-08-24T12:42:18.219Z,3.70
2022-08-24T12:46:32.488Z,3.70
2022-08-24T12:51:04.111Z,3.47
2022-08-24T12:55:52.362Z,3.45
2022-08-24T13:00:12.074Z,4.07
2022-08-24T13:04:40.482Z,3.60
2022-08-24T13:09:09.368Z,4.13
2022-08-24T13:13:46.209Z,3.55
2022-08-24T13:18:03.621Z,3.63
2022-08-24T13:22:47.775Z,4.03
2022-08-24T13:27:49.675Z,3.85
2022-08-24T13:32:03.979Z,4.03
2022-08-24T13:36:44.979Z,3.80
2022-08-24T13:41:06.617Z,3.70
2022-08-24T13:45:32.580Z,4.33
2022-08-24T14:27:43.466Z,3.88
2022-08-24T14:32:30.036Z,3.30
2022-08-24T14:36:55.025Z,3.92
2022-08-24T14:41:31.530Z,3.70
2022-08-24T14:45:57.406Z,3.70
2022-08-24T14:50:15.766Z,3.80
2022-08-24T14:54:39.785Z,3.80
2022-08-24T14:59:03.641Z,4.10
2022-08-24T15:03:34.072Z,4.10
2022-08-24T15:07:56.915Z,4.10
2022-08-24T15:12:21.452Z,3.90
2022-08-24T15:16:53.249Z,3.80
2022-08-24T15:21:19.211Z,3.95
2022-08-24T15:25:38.314Z,4.30
2022-08-24T15:29:56.165Z,3.97
2022-08-24T15:34:10.431Z,3.88
2022-08-24T15:38:32.760Z,4.00
2022-08-24T15:42:50.947Z,4.17
2022-08-24T15:47:15.746Z,4.35
2022-08-24T15:51:37.748Z,4.28
2022-08-24T15:55:53.802Z,4.20
2022-08-24T16:00:12.918Z,4.03
2022-08-24T16:04:44.074Z,4.10
2022-08-24T16:09:03.728Z,4.15
2022-08-24T16:13:28.345Z,4.20
2022-08-24T16:17:51.086Z,3.67
2022-08-24T16:22:07.946Z,4.68
2022-08-24T16:26:26.377Z,4.53
2022-08-24T16:30:49.998Z,4.43
2022-08-24T16:35:18.956Z,4.40
2022-08-24T16:39:33.421Z,4.10
2022-08-24T16:43:48.007Z,3.93
2022-08-24T16:48:03.501Z,4.30
2022-08-24T16:52:17.628Z,4.20
2022-08-24T16:56:31.385Z,4.10
2022-08-24T17:00:46.058Z,4.20
2022-08-24T17:05:01.397Z,4.47
2022-08-24T17:09:15.173Z,4.80
2022-08-24T17:13:48.397Z,5.18
2022-08-24T17:18:06.465Z,5.82
2022-08-24T17:22:22.892Z,5.30
2022-08-24T17:26:38.107Z,5.67
2022-08-24T17:30:59.487Z,5.68
2022-08-24T17:35:13.495Z,5.65
2022-08-24T17:39:28.853Z,6.60
2022-08-24T17:43:42.912Z,5.90
2022-08-24T17:47:57.110Z,5.90
2022-08-24T17:52:11.195Z,6.30
2022-08-24T17:56:27.651Z,5.97
2022-08-24T18:00:41.797Z,6.07
2022-08-24T18:04:55.692Z,6.40
2022-08-24T18:09:16.431Z,6.33
2022-08-24T18:13:31.638Z,6.30
2022-08-24T18:17:48.078Z,6.32
2022-08-24T18:22:02.273Z,6.40
2022-08-24T18:26:20.131Z,6.45
2022-08-24T18:30:35.952Z,6.30
2022-08-24T18:34:51.253Z,6.40
2022-08-24T18:39:07.253Z,6.60
2022-08-24T18:43:23.326Z,6.60
2022-08-24T18:47:38.984Z,6.63
2022-08-24T18:51:53.024Z,6.50
2022-08-24T18:56:11.818Z,7.35
2022-08-24T19:00:26.621Z,6.90
2022-08-24T19:04:47.250Z,6.70
2022-08-24T19:09:00.981Z,6.55
2022-08-24T19:13:16.135Z,7.00
2022-08-24T19:17:30.205Z,6.93
2022-08-24T19:21:45.466Z,7.32
2022-08-24T19:26:00.267Z,7.07
2022-08-24T19:30:14.875Z,7.15
2022-08-24T19:34:29.708Z,7.37
2022-08-24T19:38:45.258Z,7.47
2022-08-24T19:42:59.346Z,7.78
2022-08-24T19:47:13.662Z,8.10
2022-08-24T19:51:27.768Z,7.80
2022-08-24T19:55:42.818Z,8.07
2022-08-24T19:59:59.717Z,7.70
2022-08-24T20:04:13.617Z,7.75
2022-08-24T20:08:27.375Z,7.55
2022-08-24T20:12:44.589Z,7.60
2022-08-24T20:16:58.660Z,8.80
2022-08-24T20:21:12.671Z,8.35
2022-08-24T20:25:26.406Z,8.43
2022-08-24T20:29:43.026Z,8.47
2022-08-24T20:33:57.251Z,8.70
2022-08-24T20:38:13.181Z,9.23
2022-08-24T20:42:28.751Z,8.57
2022-08-24T20:46:46.740Z,9.20
2022-08-24T20:51:01.619Z,9.05
2022-08-24T20:55:15.773Z,8.60
2022-08-24T20:59:30.416Z,8.50
2022-08-24T21:03:45.778Z,8.63
2022-08-24T21:07:59.683Z,8.23
2022-08-24T21:12:13.511Z,8.87
2022-08-24T21:16:30.931Z,8.45
2022-08-24T21:21:00.795Z,8.40
2022-08-24T21:25:19.033Z,8.13
2022-08-24T21:29:33.399Z,8.88
2022-08-24T21:34:04.892Z,9.10
2022-08-24T21:38:20.818Z,8.23
2022-08-24T21:42:35.149Z,8.67
2022-08-24T21:46:51.864Z,8.93
2022-08-24T21:51:06.210Z,9.60
2022-08-24T21:55:21.548Z,9.67
2022-08-24T21:59:36.082Z,9.75
2022-08-24T22:03:49.996Z,10.27
2022-08-24T22:08:04.501Z,9.77
2022-08-24T22:12:20.047Z,9.73
2022-08-24T22:16:36.884Z,10.23
2022-08-24T22:20:51.637Z,10.35
2022-08-24T22:25:06.363Z,10.30
2022-08-24T22:29:22.481Z,11.38
2022-08-24T22:33:36.809Z,10.43
2022-08-24T22:37:50.883Z,10.57
2022-08-24T22:42:05.155Z,10.18
2022-08-24T22:46:21.579Z,10.55
2022-08-24T22:50:35.464Z,10.57
2022-08-24T22:54:49.687Z,10.80
2022-08-24T22:59:04.503Z,10.50
2022-08-24T23:03:20.093Z,11.27
2022-08-24T23:07:35.590Z,10.93
2022-08-24T23:11:50.720Z,11.55
2022-08-24T23:16:05.909Z,11.43
2022-08-24T23:20:23.723Z,11.80
2022-08-24T23:24:37.879Z,12.00
2022-08-24T23:28:51.722Z,11.45
2022-08-24T23:33:05.626Z,11.53
2022-08-24T23:37:20.881Z,12.63
2022-08-24T23:41:38.232Z,12.45
2022-08-24T23:45:54.955Z,12.02
2022-08-24T23:50:11.303Z,11.97
2022-08-24T23:54:27.128Z,12.68
2022-08-24T23:58:42.018Z,12.88
